KAGC Airport (Allegheny County) Information

FAA: AGC - ICAO: KAGC

KAGC Airport Location

State Pennsylvania
County Allegheny
City Pittsburgh
KAGC Airport is 4 miles southeast of Pittsburgh, PA.
Latitude 40-21-15.9755N
Longitude 079-55-44.5680W
Elevation 1,251ft

KAGC Airport METARs

METAR KAGC 060731Z AUTO 25008KT 10SM SCT019 23/19 A2994 RMK AO2 LTG DSNT N T02280194
Altimeter 29.94"
Temperature 22.8°C (73.0°F)
Wind 250° at 8KT
Clouds scattered at 1,900ft
Visibility 10.0mi
Time observed: 2022-07-06T07:31:00Z

KAGC Airport Details

Status Operational
Activation November 1937
Ownership Public
Usage Public
Chart DETROIT
ATC on-site Yes
Beacon schedule sunset-sunrise
Beacon color clear green

KAGC Airport Contacts

Owner ALLEGHENY CO ARPT AUTHORITY
Owner address PO BOX 12370, PITTSBURGH, PA 15231-0370
Owner phone 412-472-3500
Manager JAMIE CONDON
Manager address 2174 DEER CREEK RD, MORRISDALE, PA 16858
Manager phone (814) 553-4693

KAGC Airport (Allegheny County) Radio Frequencies

KAGC (Airport) Radio Frequencies

UNICOM 122.95
Common traffic advisory frequency (CTAF) N/A